Terminal Aerodrome Forecast
Issued by NWS

Home | Current Version | Previous Version | Text Only | Print | Product List | Glossary On
Versions: 1 2 3 4 5 6 7 8 9 10 11 12 13 14
000
FTUS46 KLOX 282300
TAFLGB
TAF
KLGB 282336Z 2900/2924 30009KT P6SM SKC
     FM290400 VRB03KT P6SM SKC
     FM290600 VRB03KT 4SM BR BKN007
     FM291000 VRB03KT 3SM BR OVC005
     FM291700 VRB03KT 6SM HZ BKN250
     FM291900 20007KT P6SM SCT250
     FM292300 29008KT P6SM SCT250=

USA.gov is the U.S. government's official web portal to all federal, state and local government web resources and services.